Time;durP1;ratioP1;P1;durP2;ratioP2;P2;SDS_P1;SDS_P2;PMS_P1;PMS_P2;Temp;Humidity;BMP_temperature;BMP_pressure;BME280_temperature;BME280_humidity;BME280_pressure;Samples;Min_cycle;Max_cycle;Signal;HPM_P1;HPM_P2
2024/01/16 00:00:58;;;;;;;0.20;0.10;;;;;;;1.72;85.57;99656.00;5011444;28;21004;-51
2024/01/16 00:03:25;;;;;;;0.20;0.10;;;;;;;1.72;86.10;99666.50;5011498;28;20449;-52
2024/01/16 00:05:52;;;;;;;0.20;0.10;;;;;;;1.54;85.90;99663.94;5011251;28;20492;-51
2024/01/16 00:08:18;;;;;;;0.20;0.10;;;;;;;1.52;86.63;99670.94;5011515;28;20468;-52
2024/01/16 00:10:45;;;;;;;0.20;0.10;;;;;;;1.38;86.61;99679.69;5011478;28;20456;-51
2024/01/16 00:13:12;;;;;;;0.20;0.10;;;;;;;1.37;86.99;99682.28;5011471;28;20453;-51
2024/01/16 00:15:41;;;;;;;0.47;0.47;;;;;;;1.35;86.29;99671.81;5011436;28;20822;-51
2024/01/16 00:18:08;;;;;;;0.20;0.10;;;;;;;1.32;86.99;99669.19;4993882;28;20499;-51
2024/01/16 00:20:35;;;;;;;0.20;0.10;;;;;;;1.28;86.37;99669.22;5011510;28;20688;-51
2024/01/16 00:23:02;;;;;;;0.20;0.10;;;;;;;1.33;86.88;99673.56;5011511;28;20452;-52
2024/01/16 00:25:28;;;;;;;0.20;0.10;;;;;;;1.33;86.59;99678.78;5011364;28;20565;-51
2024/01/16 00:27:55;;;;;;;0.20;0.10;;;;;;;1.35;87.07;99681.41;5011068;28;21028;-51
2024/01/16 00:30:22;;;;;;;0.20;0.10;;;;;;;1.31;87.94;99682.28;5011146;28;20515;-51
2024/01/16 00:32:48;;;;;;;0.20;0.10;;;;;;;1.43;87.24;99677.03;5011336;28;20568;-52
2024/01/16 00:35:15;;;;;;;0.20;0.10;;;;;;;1.37;87.47;99672.69;5011176;28;20445;-51
2024/01/16 00:37:42;;;;;;;0.20;0.10;;;;;;;1.34;86.58;99667.44;5014554;28;21004;-53
2024/01/16 00:40:09;;;;;;;0.20;0.10;;;;;;;1.34;87.42;99675.31;5014753;28;20479;-51
2024/01/16 00:42:36;;;;;;;0.20;0.10;;;;;;;1.23;86.91;99673.56;5015048;28;20539;-51
2024/01/16 00:45:04;;;;;;;0.20;0.10;;;;;;;1.42;87.06;99670.94;5014429;28;20949;-52
2024/01/16 00:47:31;;;;;;;0.20;0.10;;;;;;;1.26;86.89;99664.00;5014995;28;20472;-52
2024/01/16 00:50:00;;;;;;;0.20;0.10;;;;;;;1.41;86.31;99666.56;5015199;28;20464;-52
2024/01/16 00:52:27;;;;;;;0.20;0.10;;;;;;;1.37;86.93;99659.63;5015126;28;20452;-51
2024/01/16 00:54:53;;;;;;;0.20;0.10;;;;;;;1.41;86.90;99673.56;5014855;28;20445;-51
2024/01/16 00:57:21;;;;;;;0.20;0.10;;;;;;;1.27;86.39;99672.72;5017123;28;20476;-52
2024/01/16 00:59:48;;;;;;;0.20;0.10;;;;;;;1.28;86.41;99670.09;5017902;28;20449;-53
2024/01/16 01:02:15;;;;;;;0.20;0.10;;;;;;;1.27;86.29;99677.94;5014624;28;20449;-51
2024/01/16 01:04:42;;;;;;;0.20;0.10;;;;;;;1.30;86.25;99685.78;5014337;28;20487;-52
2024/01/16 01:07:13;;;;;;;0.20;0.10;;;;;;;1.25;86.18;99680.56;5014155;28;20575;-51
2024/01/16 01:09:40;;;;;;;0.20;0.10;;;;;;;1.28;86.93;99690.16;5014138;28;20445;-51
2024/01/16 01:12:07;;;;;;;0.53;0.53;;;;;;;1.22;86.36;99687.53;5013871;28;20456;-53
2024/01/16 01:14:34;;;;;;;0.20;0.10;;;;;;;1.07;86.72;99683.19;5014216;28;20612;-52
2024/01/16 01:17:01;;;;;;;0.20;0.10;;;;;;;0.94;86.46;99682.31;5013938;28;20821;-52
2024/01/16 01:19:28;;;;;;;0.20;0.10;;;;;;;0.79;87.94;99693.63;5013794;28;20906;-52
2024/01/16 01:21:55;;;;;;;0.20;0.10;;;;;;;0.67;87.18;99697.97;5013996;28;20453;-51
2024/01/16 01:24:21;;;;;;;0.20;0.10;;;;;;;0.36;89.09;99691.81;5013806;28;20452;-51
2024/01/16 01:26:48;;;;;;;0.20;0.10;;;;;;;0.36;89.48;99694.41;5013679;28;20583;-51
2024/01/16 01:29:15;;;;;;;0.20;0.10;;;;;;;-0.01;90.68;99696.91;5028964;22;20500;-53
2024/01/16 01:31:45;;;;;;;0.20;0.10;;;;;;;0.24;91.45;99701.34;5013736;28;20467;-53
2024/01/16 01:34:12;;;;;;;0.20;0.10;;;;;;;0.33;90.71;99707.50;5013769;28;20448;-53
2024/01/16 01:36:39;;;;;;;0.20;0.10;;;;;;;0.12;91.09;99698.69;5000935;28;20454;-53
2024/01/16 01:39:06;;;;;;;0.20;0.10;;;;;;;0.33;91.40;99702.25;5013135;28;20555;-53
2024/01/16 01:41:33;;;;;;;0.20;0.10;;;;;;;0.43;90.60;99704.91;5013333;28;20547;-53
2024/01/16 01:44:00;;;;;;;0.20;0.10;;;;;;;0.52;90.61;99710.13;5000234;28;21000;-53
2024/01/16 01:46:27;;;;;;;0.20;0.10;;;;;;;0.42;90.31;99703.16;5012887;28;20488;-52
2024/01/16 01:48:55;;;;;;;0.20;0.10;;;;;;;0.31;89.58;99715.31;4983223;28;20551;-53
2024/01/16 01:51:23;;;;;;;0.20;0.10;;;;;;;0.32;89.15;99716.19;5013799;28;20481;-53
2024/01/16 01:53:51;;;;;;;0.20;0.10;;;;;;;0.14;90.50;99720.50;5012868;28;20833;-53
2024/01/16 01:56:20;;;;;;;0.20;0.10;;;;;;;0.11;89.83;99725.69;5013338;28;20455;-53
2024/01/16 01:58:49;;;;;;;0.20;0.10;;;;;;;0.03;90.08;99730.03;5019304;28;20475;-53
2024/01/16 02:01:19;;;;;;;0.20;0.10;;;;;;;-0.16;89.13;99731.66;5013171;28;20491;-53
2024/01/16 02:03:47;;;;;;;0.20;0.10;;;;;;;-0.70;91.89;99743.47;5013193;28;20878;-53
2024/01/16 02:06:16;;;;;;;0.20;0.10;;;;;;;-0.40;92.23;99739.38;5012950;28;20500;-53
2024/01/16 02:08:44;;;;;;;0.20;0.10;;;;;;;-0.27;90.61;99745.50;5012802;28;20475;-53
2024/01/16 02:11:12;;;;;;;0.20;0.10;;;;;;;-0.19;90.50;99738.59;5012988;28;20872;-53
2024/01/16 02:13:38;;;;;;;0.20;0.10;;;;;;;-0.08;90.70;99744.75;5012772;28;20506;-53
2024/01/16 02:16:05;;;;;;;0.20;0.10;;;;;;;0.12;91.24;99737.88;5012802;28;20480;-53
2024/01/16 02:18:32;;;;;;;0.20;0.10;;;;;;;0.35;91.00;99731.88;5012774;28;20849;-53
2024/01/16 02:21:03;;;;;;;0.20;0.10;;;;;;;0.58;90.67;99745.91;4995274;28;20445;-53
2024/01/16 02:23:31;;;;;;;0.20;0.10;;;;;;;0.61;90.12;99731.97;4995611;28;20942;-53
2024/01/16 02:25:58;;;;;;;1.33;1.33;;;;;;;0.65;90.03;99716.28;5012516;28;21066;-53
2024/01/16 02:28:24;;;;;;;0.20;0.10;;;;;;;0.68;90.30;99718.88;5012489;28;20567;-53
2024/01/16 02:30:51;;;;;;;0.20;0.10;;;;;;;0.81;90.19;99731.13;5012606;28;20452;-53
2024/01/16 02:33:18;;;;;;;0.20;0.10;;;;;;;0.81;89.03;99723.28;5012672;28;20460;-53
2024/01/16 02:35:44;;;;;;;0.20;0.10;;;;;;;0.74;89.48;99726.75;5012682;28;20475;-53
2024/01/16 02:38:11;;;;;;;0.20;0.10;;;;;;;0.85;89.02;99732.88;5012623;28;20524;-53
2024/01/16 02:40:38;;;;;;;0.20;0.10;;;;;;;0.92;88.62;99733.75;5012557;28;20491;-53
2024/01/16 02:43:04;;;;;;;0.20;0.10;;;;;;;0.81;89.01;99738.09;5012364;28;20492;-53
2024/01/16 02:45:31;;;;;;;0.20;0.10;;;;;;;0.96;88.43;99732.00;5012300;28;20953;-53
2024/01/16 02:47:57;;;;;;;2.47;2.37;;;;;;;0.89;88.60;99737.25;5012474;28;20543;-53
2024/01/16 02:50:24;;;;;;;0.20;0.10;;;;;;;0.78;88.53;99745.94;5012759;28;20464;-53
2024/01/16 02:52:51;;;;;;;0.20;0.10;;;;;;;0.86;88.85;99747.72;5012333;28;20471;-53
2024/01/16 02:55:17;;;;;;;0.20;0.10;;;;;;;0.80;89.06;99742.44;4995036;28;20456;-53
2024/01/16 02:57:44;;;;;;;0.20;0.10;;;;;;;0.93;88.30;99740.72;5017534;28;20444;-53
2024/01/16 03:00:11;;;;;;;0.20;0.10;;;;;;;0.89;88.21;99750.31;4998739;28;20515;-53
2024/01/16 03:02:37;;;;;;;0.20;0.10;;;;;;;0.92;88.73;99757.31;5012092;28;20484;-53
2024/01/16 03:05:07;;;;;;;0.70;0.70;;;;;;;0.93;88.69;99748.56;5012519;28;20541;-53
2024/01/16 03:07:34;;;;;;;0.20;0.10;;;;;;;0.99;88.64;99747.72;5011883;28;20492;-53
2024/01/16 03:10:01;;;;;;;0.20;0.10;;;;;;;1.06;88.27;99747.72;5012204;28;20457;-53
2024/01/16 03:12:27;;;;;;;0.20;0.10;;;;;;;0.97;88.84;99747.72;5012103;28;20857;-53
2024/01/16 03:14:54;;;;;;;0.20;0.10;;;;;;;1.02;88.75;99745.97;5012085;28;20457;-53
2024/01/16 03:17:21;;;;;;;0.20;0.10;;;;;;;1.09;88.88;99746.84;5011803;28;20479;-53
2024/01/16 03:19:48;;;;;;;0.20;0.10;;;;;;;1.03;88.74;99739.00;5012021;28;20480;-53
2024/01/16 03:22:14;;;;;;;0.20;0.10;;;;;;;1.06;88.16;99750.34;5012034;28;20452;-53
2024/01/16 03:24:41;;;;;;;0.20;0.10;;;;;;;1.17;88.94;99747.75;4994436;28;20580;-53
2024/01/16 03:27:07;;;;;;;0.20;0.10;;;;;;;1.06;88.62;99749.47;5011719;28;21000;-53
2024/01/16 03:29:34;;;;;;;0.30;0.20;;;;;;;1.20;87.75;99752.97;5011585;28;20546;-53
2024/01/16 03:32:00;;;;;;;0.20;0.10;;;;;;;1.29;87.89;99749.50;5011949;28;20578;-53
2024/01/16 03:34:27;;;;;;;0.20;0.10;;;;;;;1.34;88.15;99743.38;5011952;28;20511;-53
2024/01/16 03:36:54;;;;;;;0.20;0.10;;;;;;;1.20;87.74;99745.13;5011932;28;20483;-53
2024/01/16 03:39:22;;;;;;;0.20;0.10;;;;;;;1.06;88.42;99745.09;5011713;28;20556;-53
2024/01/16 03:41:48;;;;;;;0.20;0.10;;;;;;;1.11;88.73;99755.59;5011602;28;20452;-53
2024/01/16 03:44:15;;;;;;;0.20;0.13;;;;;;;1.12;88.58;99739.91;5011714;28;20927;-53
2024/01/16 03:46:42;;;;;;;0.20;0.10;;;;;;;1.02;88.19;99740.75;5011668;28;20492;-53
2024/01/16 03:49:08;;;;;;;0.20;0.10;;;;;;;1.00;88.55;99745.13;5011641;28;20584;-53
2024/01/16 03:51:35;;;;;;;0.20;0.10;;;;;;;1.08;88.87;99751.22;5011766;28;20452;-53
2024/01/16 03:54:01;;;;;;;0.20;0.10;;;;;;;1.00;88.38;99749.47;5011594;28;20583;-53
2024/01/16 03:56:28;;;;;;;0.20;0.10;;;;;;;1.08;89.04;99745.09;5011495;28;20531;-53
2024/01/16 03:58:55;;;;;;;0.20;0.10;;;;;;;1.10;88.49;99744.25;5017026;28;20472;-53
2024/01/16 04:01:36;;;;;;;0.20;0.10;;;;;;;1.06;89.19;99741.63;5011558;28;20492;-53
2024/01/16 04:04:02;;;;;;;0.20;0.10;;;;;;;1.09;88.08;99737.25;5011625;28;20479;-53
2024/01/16 04:06:29;;;;;;;0.20;0.10;;;;;;;1.12;88.67;99737.28;5022532;28;20913;-53
2024/01/16 04:08:56;;;;;;;0.20;0.10;;;;;;;1.12;88.30;99737.28;5011268;28;20472;-53
2024/01/16 04:11:22;;;;;;;0.20;0.10;;;;;;;1.17;88.25;99752.97;5014676;28;20976;-53
2024/01/16 04:13:49;;;;;;;0.20;0.10;;;;;;;1.10;88.85;99746.00;5015101;28;21004;-54
2024/01/16 04:16:16;;;;;;;0.20;0.10;;;;;;;1.09;88.66;99744.22;5015288;28;20490;-54
2024/01/16 04:18:43;;;;;;;0.20;0.10;;;;;;;1.00;87.99;99741.63;5020301;28;20515;-55
2024/01/16 04:21:10;;;;;;;0.20;0.10;;;;;;;1.05;88.16;99745.97;5014732;28;20535;-55
2024/01/16 04:23:37;;;;;;;0.20;0.10;;;;;;;1.07;88.25;99748.59;5014943;28;20464;-54
2024/01/16 04:26:04;;;;;;;0.20;0.10;;;;;;;0.96;88.88;99745.09;5013618;28;20484;-55
2024/01/16 04:28:30;;;;;;;0.20;0.10;;;;;;;0.89;88.73;99742.47;5014885;28;20488;-54
2024/01/16 04:30:57;;;;;;;0.20;0.10;;;;;;;0.96;89.04;99751.22;5014887;28;20448;-54
2024/01/16 04:33:23;;;;;;;0.20;0.10;;;;;;;0.86;88.60;99752.94;5014941;28;20449;-55
2024/01/16 04:35:50;;;;;;;0.20;0.10;;;;;;;0.86;88.72;99762.53;5014610;28;20933;-54
2024/01/16 04:38:17;;;;;;;0.20;0.10;;;;;;;0.86;88.19;99766.03;5015005;28;20518;-54
2024/01/16 04:40:43;;;;;;;0.20;0.10;;;;;;;0.57;89.98;99771.19;5014536;28;20449;-54
2024/01/16 04:43:10;;;;;;;0.20;0.10;;;;;;;0.42;90.91;99768.53;5014730;28;20461;-54
2024/01/16 04:45:36;;;;;;;0.20;0.10;;;;;;;0.19;90.15;99775.38;5001314;28;20449;-55
2024/01/16 04:48:03;;;;;;;0.20;0.10;;;;;;;0.37;90.69;99767.59;5014567;28;20570;-54
2024/01/16 04:50:33;;;;;;;0.20;0.10;;;;;;;0.48;90.98;99770.28;5014378;28;20810;-54
2024/01/16 04:53:00;;;;;;;0.20;0.10;;;;;;;0.59;89.93;99758.97;5014072;28;20532;-54
2024/01/16 04:55:30;;;;;;;0.20;0.10;;;;;;;0.45;90.14;99758.06;5014867;28;20456;-55
2024/01/16 04:57:57;;;;;;;0.20;0.10;;;;;;;0.49;90.46;99749.34;5014502;28;20519;-54
2024/01/16 05:00:23;;;;;;;0.20;0.10;;;;;;;0.54;89.61;99744.13;5014476;28;20481;-54
2024/01/16 05:02:51;;;;;;;0.20;0.10;;;;;;;0.47;88.81;99745.88;5014239;28;20483;-55
2024/01/16 05:05:18;;;;;;;0.20;0.10;;;;;;;0.34;88.96;99737.97;5014191;28;20463;-55
2024/01/16 05:07:45;;;;;;;0.20;0.10;;;;;;;0.46;89.02;99723.22;5013761;28;20480;-54
2024/01/16 05:10:15;;;;;;;0.20;0.10;;;;;;;0.50;88.73;99727.56;5014553;28;20456;-54
2024/01/16 05:12:42;;;;;;;0.20;0.10;;;;;;;0.50;89.51;99726.69;5013950;28;20956;-55
2024/01/16 05:15:11;;;;;;;0.20;0.10;;;;;;;0.48;89.38;99733.66;5014204;28;20456;-54
2024/01/16 05:17:40;;;;;;;0.20;0.10;;;;;;;0.42;89.44;99731.06;5013887;28;20495;-55
2024/01/16 05:20:08;;;;;;;0.20;0.10;;;;;;;0.33;89.32;99731.00;5013939;28;20457;-54
2024/01/16 05:22:34;;;;;;;0.20;0.10;;;;;;;0.32;89.73;99724.03;5013257;28;20514;-54
2024/01/16 05:25:02;;;;;;;0.20;0.10;;;;;;;0.32;90.09;99710.97;5013904;28;20456;-54
2024/01/16 05:27:29;;;;;;;0.20;0.10;;;;;;;0.33;89.90;99713.59;5013702;28;20570;-54
2024/01/16 05:29:55;;;;;;;0.20;0.10;;;;;;;0.23;88.83;99707.44;5013698;28;20539;-54
2024/01/16 05:32:22;;;;;;;0.20;0.10;;;;;;;0.15;89.74;99705.69;5013682;28;20538;-54
2024/01/16 05:34:48;;;;;;;0.20;0.10;;;;;;;0.06;88.48;99719.59;5013554;28;20453;-54
2024/01/16 05:37:15;;;;;;;0.20;0.10;;;;;;;-0.10;88.91;99717.78;5013708;28;20453;-55
2024/01/16 05:39:42;;;;;;;0.20;0.10;;;;;;;-0.15;88.74;99720.34;5013553;28;20531;-54
2024/01/16 05:42:08;;;;;;;0.20;0.10;;;;;;;-0.37;88.76;99713.25;5013321;28;21019;-54
2024/01/16 05:44:35;;;;;;;0.20;0.10;;;;;;;-0.57;89.20;99712.25;5013436;28;20494;-54
2024/01/16 05:47:02;;;;;;;0.20;0.10;;;;;;;-0.54;89.99;99710.56;5013269;28;21000;-54
2024/01/16 05:49:28;;;;;;;0.20;0.10;;;;;;;-0.63;90.16;99710.47;5013273;28;20981;-53
2024/01/16 05:51:55;;;;;;;0.20;0.10;;;;;;;-0.63;89.78;99711.34;5013548;28;20452;-59
2024/01/16 05:54:22;;;;;;;0.20;0.10;;;;;;;-0.80;89.89;99712.97;5013374;28;20522;-54
2024/01/16 05:56:49;;;;;;;0.20;0.10;;;;;;;-0.83;89.80;99712.94;5013183;28;20894;-55
2024/01/16 05:59:16;;;;;;;0.20;0.10;;;;;;;-0.85;90.11;99714.66;5013065;28;20479;-54
2024/01/16 06:01:43;;;;;;;0.20;0.10;;;;;;;-0.83;90.49;99718.16;5012872;28;21024;-54
2024/01/16 06:04:09;;;;;;;0.20;0.10;;;;;;;-0.78;90.15;99720.81;5012948;28;20890;-54
2024/01/16 06:06:44;;;;;;;0.20;0.10;;;;;;;-0.92;90.31;99720.72;5012929;28;20503;-55
2024/01/16 06:09:13;;;;;;;0.20;0.10;;;;;;;-0.92;90.08;99721.56;5012649;28;20473;-54
2024/01/16 06:11:43;;;;;;;0.20;0.10;;;;;;;-1.02;89.81;99722.34;5012989;28;20991;-55
2024/01/16 06:14:12;;;;;;;0.20;0.10;;;;;;;-1.23;90.86;99722.19;5012677;28;20448;-55
2024/01/16 06:16:38;;;;;;;0.20;0.10;;;;;;;-1.15;90.60;99720.50;5012641;28;20449;-55
2024/01/16 06:19:05;;;;;;;0.20;0.10;;;;;;;-1.19;90.81;99723.94;5012715;28;20465;-54
2024/01/16 06:21:32;;;;;;;0.20;0.10;;;;;;;-1.22;90.63;99713.50;5012925;28;20503;-55
2024/01/16 06:23:58;;;;;;;0.20;0.10;;;;;;;-1.25;90.35;99714.31;5012414;28;20461;-55
2024/01/16 06:26:25;;;;;;;0.20;0.10;;;;;;;-1.10;91.03;99713.56;5012536;28;20453;-55
2024/01/16 06:28:52;;;;;;;0.20;0.10;;;;;;;-0.94;90.03;99707.66;5011891;28;20484;-55
2024/01/16 06:31:18;;;;;;;0.20;0.10;;;;;;;-0.84;89.97;99702.50;5012535;28;20499;-54
2024/01/16 06:33:45;;;;;;;0.20;0.10;;;;;;;-0.90;89.77;99695.50;5012287;28;20462;-54
2024/01/16 06:36:12;;;;;;;0.20;0.10;;;;;;;-0.97;89.73;99697.16;5012556;28;20451;-54
2024/01/16 06:38:40;;;;;;;0.20;0.10;;;;;;;-0.96;90.23;99706.78;5012288;28;20465;-54
2024/01/16 06:41:07;;;;;;;0.20;0.10;;;;;;;-1.23;89.94;99706.53;5012394;28;20452;-54
2024/01/16 06:43:34;;;;;;;0.20;0.10;;;;;;;-1.38;90.84;99712.44;5012275;28;20492;-54
2024/01/16 06:46:00;;;;;;;0.20;0.10;;;;;;;-1.39;91.01;99702.00;5012566;28;20459;-55
2024/01/16 06:48:27;;;;;;;0.20;0.10;;;;;;;-1.48;91.06;99705.41;5012208;28;20981;-54
2024/01/16 06:50:54;;;;;;;0.20;0.10;;;;;;;-1.33;91.01;99702.09;5012521;28;20821;-55
2024/01/16 06:53:20;;;;;;;0.20;0.10;;;;;;;-1.46;90.39;99698.47;5012023;28;20464;-54
2024/01/16 06:55:48;;;;;;;0.20;0.10;;;;;;;-1.44;91.25;99699.38;5012222;28;20460;-55
2024/01/16 06:58:15;;;;;;;0.20;0.10;;;;;;;-1.36;91.30;99704.66;5011937;28;20819;-54
2024/01/16 07:00:41;;;;;;;4.33;2.43;;;;;;;-1.39;90.64;99700.28;5012325;28;20452;-54
2024/01/16 07:03:09;;;;;;;0.20;0.10;;;;;;;-1.40;90.73;99695.91;5012025;28;21027;-55
2024/01/16 07:05:36;;;;;;;0.20;0.10;;;;;;;-1.79;90.47;99710.28;5012016;28;20543;-55
2024/01/16 07:08:02;;;;;;;0.20;0.10;;;;;;;-1.77;91.17;99710.31;5011965;28;20500;-55
2024/01/16 07:10:30;;;;;;;0.20;0.10;;;;;;;-1.83;91.07;99702.41;5012015;28;20452;-54
2024/01/16 07:12:56;;;;;;;0.20;0.10;;;;;;;-1.75;91.74;99706.00;5011737;28;20863;-55
2024/01/16 07:15:23;;;;;;;0.20;0.10;;;;;;;-1.83;92.92;99705.91;5011993;28;20458;-54
2024/01/16 07:17:49;;;;;;;0.20;0.10;;;;;;;-1.59;93.00;99712.25;5011718;28;20981;-55
2024/01/16 07:20:16;;;;;;;0.20;0.10;;;;;;;-1.44;92.57;99708.91;5011940;28;20456;-55
2024/01/16 07:22:43;;;;;;;0.20;0.10;;;;;;;-1.24;92.13;99716.06;5011908;28;20899;-55
2024/01/16 07:25:09;;;;;;;0.20;0.10;;;;;;;-1.10;92.37;99721.41;5011619;28;20854;-55
2024/01/16 07:27:36;;;;;;;0.20;0.10;;;;;;;-1.03;91.82;99725.81;5011862;28;21020;-55
2024/01/16 07:30:06;;;;;;;0.20;0.10;;;;;;;-0.61;91.34;99720.06;5042324;22;20973;-53
2024/01/16 07:32:33;;;;;;;0.20;0.10;;;;;;;-0.51;91.79;99718.41;5031417;28;20957;-53
2024/01/16 07:35:02;;;;;;;0.20;0.10;;;;;;;-0.36;91.79;99713.28;5031521;28;20459;-53
2024/01/16 07:37:29;;;;;;;0.20;0.10;;;;;;;-0.27;91.22;99709.84;5018264;28;20452;-52
2024/01/16 07:39:56;;;;;;;0.20;0.10;;;;;;;-0.31;91.23;99711.56;5031742;28;20525;-53
2024/01/16 07:42:22;;;;;;;0.20;0.10;;;;;;;-0.34;92.04;99708.94;5031518;28;20460;-53
2024/01/16 07:44:49;;;;;;;0.20;0.10;;;;;;;-0.21;91.41;99709.00;5032504;28;20479;-53
2024/01/16 07:47:15;;;;;;;0.20;0.10;;;;;;;-0.25;91.09;99708.13;5022988;28;20518;-54
2024/01/16 07:49:43;;;;;;;0.20;0.10;;;;;;;-0.16;90.86;99705.53;5035397;28;20468;-52
2024/01/16 07:52:09;;;;;;;0.20;0.10;;;;;;;-0.13;91.31;99702.09;5035393;28;20509;-53
2024/01/16 07:54:36;;;;;;;0.20;0.10;;;;;;;0.09;90.40;99705.66;5035433;28;20534;-53
2024/01/16 07:57:02;;;;;;;0.20;0.10;;;;;;;-0.04;90.24;99704.72;5035320;28;20969;-53
2024/01/16 07:59:29;;;;;;;0.20;0.10;;;;;;;-0.02;91.08;99721.28;5035361;28;20561;-54
2024/01/16 08:01:56;;;;;;;0.20;0.10;;;;;;;-0.03;90.24;99720.41;5035130;28;20823;-53
2024/01/16 08:04:23;;;;;;;0.20;0.10;;;;;;;-0.03;90.50;99719.53;5035137;28;20487;-53
2024/01/16 08:06:49;;;;;;;0.20;0.10;;;;;;;-0.01;91.17;99717.78;5035418;28;20506;-53
2024/01/16 08:09:17;;;;;;;0.20;0.10;;;;;;;0.00;91.00;99716.97;5035082;28;20838;-54
2024/01/16 08:11:43;;;;;;;0.20;0.10;;;;;;;-0.04;90.88;99720.41;5035146;28;20478;-53
2024/01/16 08:14:10;;;;;;;0.20;0.10;;;;;;;-0.15;90.76;99729.91;5034792;28;20813;-53
2024/01/16 08:16:37;;;;;;;0.20;0.10;;;;;;;-0.25;91.53;99729.00;5035095;28;20451;-53
2024/01/16 08:19:04;;;;;;;0.20;0.10;;;;;;;-0.20;91.73;99729.03;5034762;28;20486;-53
2024/01/16 08:21:30;;;;;;;0.20;0.10;;;;;;;-0.08;91.90;99736.94;5034758;28;20458;-54
2024/01/16 08:23:57;;;;;;;0.20;0.10;;;;;;;-0.17;91.76;99740.34;5034862;28;20871;-53
2024/01/16 08:26:24;;;;;;;0.20;0.10;;;;;;;-0.12;91.99;99735.19;5035111;28;20531;-54
2024/01/16 08:28:51;;;;;;;0.20;0.10;;;;;;;-0.05;91.55;99740.41;5034231;28;20575;-54
2024/01/16 08:31:18;;;;;;;0.20;0.10;;;;;;;-0.08;92.23;99748.25;5034781;28;20455;-53
2024/01/16 08:33:45;;;;;;;0.20;0.10;;;;;;;0.11;92.20;99746.59;5034507;28;20475;-54
2024/01/16 08:36:15;;;;;;;0.20;0.10;;;;;;;0.12;91.54;99747.47;5034786;28;20468;-54
2024/01/16 08:38:41;;;;;;;0.20;0.10;;;;;;;0.13;91.80;99752.69;5034443;28;20492;-53
2024/01/16 08:41:11;;;;;;;0.20;0.10;;;;;;;0.21;91.25;99745.78;5034428;28;20534;-54
2024/01/16 08:43:37;;;;;;;0.20;0.10;;;;;;;0.24;91.17;99750.13;5034581;28;20451;-53
2024/01/16 08:46:04;;;;;;;0.20;0.10;;;;;;;0.34;91.19;99751.06;5034474;28;20539;-53
2024/01/16 08:48:31;;;;;;;0.67;0.67;;;;;;;0.38;90.32;99758.03;5034099;28;20495;-54
2024/01/16 08:50:58;;;;;;;0.20;0.10;;;;;;;0.33;91.59;99760.63;5034642;28;20451;-52
2024/01/16 08:53:27;;;;;;;0.20;0.10;;;;;;;0.37;90.92;99753.66;5034306;28;20459;-52
2024/01/16 08:55:54;;;;;;;0.20;0.10;;;;;;;0.40;91.12;99756.28;5033750;28;20817;-55
2024/01/16 08:58:21;;;;;;;0.20;0.10;;;;;;;0.49;90.47;99756.31;5033589;28;20495;-52
2024/01/16 09:00:47;;;;;;;0.20;0.10;;;;;;;0.46;90.67;99756.31;5034230;28;20451;-51
2024/01/16 09:03:14;;;;;;;0.20;0.10;;;;;;;0.50;90.77;99752.84;5034003;28;20961;-55
2024/01/16 09:05:40;;;;;;;0.20;0.10;;;;;;;0.57;90.12;99746.78;5033883;28;21023;-53
2024/01/16 09:08:07;;;;;;;0.20;0.10;;;;;;;0.54;89.96;99750.22;5033955;28;20591;-53
2024/01/16 09:10:38;;;;;;;0.20;0.10;;;;;;;0.69;89.62;99756.41;5016939;28;20463;-53
2024/01/16 09:13:05;;;;;;;0.20;0.10;;;;;;;0.75;89.62;99748.56;5033758;28;20510;-52
2024/01/16 09:15:32;;;;;;;2.10;2.00;;;;;;;0.81;89.66;99752.03;5033957;28;20542;-53
2024/01/16 09:17:58;;;;;;;0.20;0.10;;;;;;;0.88;89.47;99758.19;5034394;28;20510;-52
2024/01/16 09:20:25;;;;;;;0.20;0.10;;;;;;;1.05;89.25;99752.97;5033692;28;20455;-52
2024/01/16 09:22:52;;;;;;;0.20;0.10;;;;;;;0.95;89.07;99746.81;5033717;28;20451;-53
2024/01/16 09:25:18;;;;;;;0.20;0.10;;;;;;;1.01;88.65;99739.00;5016109;28;20509;-53
2024/01/16 09:27:45;;;;;;;0.20;0.10;;;;;;;0.95;89.23;99752.06;5033447;28;20519;-53
2024/01/16 09:30:12;;;;;;;0.20;0.10;;;;;;;1.12;88.12;99742.50;5033247;28;21034;-53
2024/01/16 09:32:39;;;;;;;0.20;0.10;;;;;;;0.96;88.15;99745.09;5033421;28;20555;-53
2024/01/16 09:35:08;;;;;;;0.20;0.10;;;;;;;1.02;88.76;99748.59;5033960;28;20638;-53
2024/01/16 09:37:35;;;;;;;0.20;0.10;;;;;;;1.16;87.92;99762.56;5033732;28;20517;-53
2024/01/16 09:40:05;;;;;;;0.30;0.20;;;;;;;1.26;87.58;99762.59;5033608;28;20840;-52
2024/01/16 09:42:31;;;;;;;0.20;0.10;;;;;;;1.32;87.41;99758.22;5033658;28;20542;-52
2024/01/16 09:45:00;;;;;;;0.20;0.10;;;;;;;1.32;88.46;99759.94;5033989;28;20455;-52
2024/01/16 09:47:28;;;;;;;0.20;0.10;;;;;;;1.30;87.96;99754.72;5033801;28;20452;-53
2024/01/16 09:49:57;;;;;;;0.20;0.10;;;;;;;1.36;87.95;99761.69;5033183;28;20475;-52
2024/01/16 09:52:24;;;;;;;0.20;0.10;;;;;;;1.56;88.03;99765.19;5033199;28;20456;-52
2024/01/16 09:54:50;;;;;;;0.20;0.10;;;;;;;1.36;88.58;99775.66;5032905;28;20506;-52
2024/01/16 09:57:20;;;;;;;0.20;0.10;;;;;;;1.42;87.42;99766.94;5033050;28;20541;-52
2024/01/16 09:59:48;;;;;;;0.20;0.10;;;;;;;1.62;87.16;99762.53;5033326;28;20468;-53
2024/01/16 10:02:15;;;;;;;0.20;0.10;;;;;;;1.67;86.70;99755.56;5033009;28;20937;-53
2024/01/16 10:04:41;;;;;;;0.20;0.10;;;;;;;1.63;87.06;99763.41;5032914;28;20452;-53
2024/01/16 10:07:11;;;;;;;0.20;0.10;;;;;;;1.78;86.28;99768.63;5032637;28;20986;-53
2024/01/16 10:09:39;;;;;;;0.20;0.10;;;;;;;1.91;86.23;99764.25;5032368;28;20502;-52
2024/01/16 10:12:06;;;;;;;0.20;0.10;;;;;;;1.97;85.39;99766.88;5032636;28;21018;-52
2024/01/16 10:14:38;;;;;;;0.20;0.10;;;;;;;1.85;85.13;99772.13;5032792;28;20493;-52
2024/01/16 10:17:05;;;;;;;0.20;0.10;;;;;;;1.78;85.51;99774.78;5032760;28;20821;-52
2024/01/16 10:19:33;;;;;;;0.20;0.10;;;;;;;1.90;85.01;99768.63;5032484;28;20673;-52
2024/01/16 10:22:20;;;;;;;0.20;0.10;;;;;;;1.84;84.22;99755.53;5032343;28;20955;-53
2024/01/16 10:25:08;;;;;;;0.20;0.10;;;;;;;1.82;84.50;99748.56;5032647;28;20448;-53
2024/01/16 10:27:36;;;;;;;0.20;0.10;;;;;;;2.10;84.16;99747.63;5032381;28;20454;-53
2024/01/16 10:30:04;;;;;;;0.20;0.10;;;;;;;2.29;82.85;99749.28;5014651;28;20511;-53
2024/01/16 10:32:34;;;;;;;0.20;0.10;;;;;;;2.39;82.75;99742.25;5032229;28;20451;-53
2024/01/16 10:35:04;;;;;;;0.20;0.10;;;;;;;2.42;82.53;99744.84;5032215;28;20448;-53
2024/01/16 10:37:41;;;;;;;0.20;0.10;;;;;;;2.60;82.33;99733.38;5032319;28;20531;-53
2024/01/16 10:40:08;;;;;;;0.20;0.10;;;;;;;2.75;81.38;99735.94;5032034;28;20499;-52
2024/01/16 10:42:34;;;;;;;0.20;0.10;;;;;;;2.76;80.10;99731.56;5013094;28;20495;-52
2024/01/16 10:45:00;;;;;;;0.20;0.10;;;;;;;2.67;80.21;99735.13;5031962;28;20546;-52
2024/01/16 10:47:28;;;;;;;0.20;0.10;;;;;;;2.70;79.33;99732.47;5031974;28;20484;-53
2024/01/16 10:49:55;;;;;;;0.20;0.10;;;;;;;3.10;78.81;99725.19;5031710;28;20467;-51
2024/01/16 10:52:26;;;;;;;13.70;4.93;;;;;;;2.90;78.32;99716.59;5032083;28;20527;-52
2024/01/16 10:54:57;;;;;;;0.20;0.10;;;;;;;2.65;78.59;99703.66;5032295;28;20452;-53
2024/01/16 10:57:25;;;;;;;0.20;0.10;;;;;;;2.50;78.65;99708.13;5031812;28;20510;-52
2024/01/16 11:00:04;;;;;;;0.20;0.10;;;;;;;2.87;78.26;99696.47;5031664;28;20467;-52
2024/01/16 11:02:37;;;;;;;0.20;0.10;;;;;;;2.90;77.60;99693.84;5031994;28;20444;-53
2024/01/16 11:05:05;;;;;;;0.20;0.10;;;;;;;2.81;77.20;99688.66;5031689;28;20447;-53
2024/01/16 11:07:35;;;;;;;0.20;0.10;;;;;;;2.81;77.45;99691.28;5032102;28;20929;-53
2024/01/16 11:10:03;;;;;;;0.20;0.10;;;;;;;2.86;76.91;99692.13;5019084;28;20499;-52
2024/01/16 11:12:32;;;;;;;0.20;0.10;;;;;;;2.64;77.48;99694.03;5031557;28;20447;-52
2024/01/16 11:15:01;;;;;;;0.20;0.10;;;;;;;2.71;77.88;99683.47;5032001;28;20467;-53
2024/01/16 11:17:31;;;;;;;0.20;0.10;;;;;;;2.60;77.31;99686.16;5031800;28;20447;-53
2024/01/16 11:19:58;;;;;;;1.07;1.07;;;;;;;2.71;76.95;99691.34;5031038;28;20472;-53
2024/01/16 11:22:45;;;;;;;0.20;0.10;;;;;;;2.76;76.77;99684.34;5017047;28;20450;-53
2024/01/16 11:25:14;;;;;;;0.20;0.10;;;;;;;2.76;76.37;99684.34;5031955;28;20451;-52
2024/01/16 11:27:42;;;;;;;0.20;0.10;;;;;;;2.74;77.03;99672.97;5031217;28;21026;-53
2024/01/16 11:30:12;;;;;;;0.20;0.10;;;;;;;2.83;76.74;99665.91;5031312;28;20511;-52
2024/01/16 11:32:40;;;;;;;0.20;0.10;;;;;;;3.09;75.96;99655.19;5031583;28;20522;-53
2024/01/16 11:35:08;;;;;;;0.20;0.10;;;;;;;3.02;75.17;99644.78;5031423;28;20820;-54
2024/01/16 11:37:37;;;;;;;0.20;0.10;;;;;;;3.18;74.99;99643.75;5031754;28;20895;-54
2024/01/16 11:40:22;;;;;;;0.20;0.10;;;;;;;3.15;74.08;99634.16;5031155;28;20467;-53